sensor_id;sensor_type;location;lat;lon;timestamp;pressure;altitude;pressure_sealevel;temperature;humidity
75629;BME280;64213;46.452;16.994;2023-05-24T00:02:42;99627.06;;;17.12;81.44
75629;BME280;64213;46.452;16.994;2023-05-24T00:09:07;99623.97;;;17.17;81.38
75629;BME280;64213;46.452;16.994;2023-05-24T00:12:09;99622.50;;;17.23;81.23
75629;BME280;64213;46.452;16.994;2023-05-24T00:15:11;99621.66;;;17.22;81.33
75629;BME280;64213;46.452;16.994;2023-05-24T00:18:13;99631.09;;;17.26;81.51
75629;BME280;64213;46.452;16.994;2023-05-24T00:21:18;99636.56;;;17.25;81.72
75629;BME280;64213;46.452;16.994;2023-05-24T00:24:20;99631.75;;;17.28;81.52
75629;BME280;64213;46.452;16.994;2023-05-24T00:27:22;99631.38;;;17.23;81.38
75629;BME280;64213;46.452;16.994;2023-05-24T00:30:24;99635.44;;;17.27;81.19
75629;BME280;64213;46.452;16.994;2023-05-24T00:33:26;99640.78;;;17.27;81.50
75629;BME280;64213;46.452;16.994;2023-05-24T00:36:29;99638.78;;;17.29;81.51
75629;BME280;64213;46.452;16.994;2023-05-24T00:39:31;99640.06;;;17.25;81.76
75629;BME280;64213;46.452;16.994;2023-05-24T00:42:33;99653.16;;;17.28;81.74
75629;BME280;64213;46.452;16.994;2023-05-24T00:45:35;99653.16;;;17.28;81.58
75629;BME280;64213;46.452;16.994;2023-05-24T00:48:37;99653.16;;;17.28;81.59
75629;BME280;64213;46.452;16.994;2023-05-24T00:51:40;99668.88;;;17.31;81.48
75629;BME280;64213;46.452;16.994;2023-05-24T00:54:42;99661.56;;;17.33;81.36
75629;BME280;64213;46.452;16.994;2023-05-24T00:57:44;99665.78;;;17.36;81.84
75629;BME280;64213;46.452;16.994;2023-05-24T01:00:47;99656.22;;;17.33;83.90
75629;BME280;64213;46.452;16.994;2023-05-24T01:03:53;99654.50;;;17.32;83.47
75629;BME280;64213;46.452;16.994;2023-05-24T01:10:31;99655.00;;;17.00;84.72
75629;BME280;64213;46.452;16.994;2023-05-24T01:13:45;99655.88;;;17.01;84.76
75629;BME280;64213;46.452;16.994;2023-05-24T01:16:54;99659.81;;;16.96;85.50
75629;BME280;64213;46.452;16.994;2023-05-24T01:20:07;99667.13;;;16.94;86.03
75629;BME280;64213;46.452;16.994;2023-05-24T01:23:43;99662.69;;;16.85;86.11
75629;BME280;64213;46.452;16.994;2023-05-24T01:27:08;99666.63;;;16.81;86.85
75629;BME280;64213;46.452;16.994;2023-05-24T01:30:12;99671.28;;;16.79;86.55
75629;BME280;64213;46.452;16.994;2023-05-24T01:33:14;99678.19;;;16.72;87.23
75629;BME280;64213;46.452;16.994;2023-05-24T01:36:17;99671.13;;;16.71;87.17
75629;BME280;64213;46.452;16.994;2023-05-24T01:39:20;99679.84;;;16.73;86.96
75629;BME280;64213;46.452;16.994;2023-05-24T01:42:30;99674.63;;;16.71;86.94
75629;BME280;64213;46.452;16.994;2023-05-24T01:45:48;99671.41;;;16.68;87.17
75629;BME280;64213;46.452;16.994;2023-05-24T01:49:02;99661.75;;;16.67;87.32
75629;BME280;64213;46.452;16.994;2023-05-24T01:52:11;99678.88;;;16.64;87.53
75629;BME280;64213;46.452;16.994;2023-05-24T01:55:16;99676.38;;;16.63;87.24
75629;BME280;64213;46.452;16.994;2023-05-24T01:58:21;99679.88;;;16.63;87.74
75629;BME280;64213;46.452;16.994;2023-05-24T02:01:25;99674.38;;;16.65;87.49
75629;BME280;64213;46.452;16.994;2023-05-24T02:04:27;99681.84;;;16.61;87.74
75629;BME280;64213;46.452;16.994;2023-05-24T02:07:29;99680.19;;;16.60;88.08
75629;BME280;64213;46.452;16.994;2023-05-24T02:10:31;99683.53;;;16.62;87.30
75629;BME280;64213;46.452;16.994;2023-05-24T02:13:33;99675.69;;;16.61;87.59
75629;BME280;64213;46.452;16.994;2023-05-24T02:16:35;99677.06;;;16.65;87.54
75629;BME280;64213;46.452;16.994;2023-05-24T02:19:43;99685.53;;;16.60;87.39
75629;BME280;64213;46.452;16.994;2023-05-24T02:22:45;99684.69;;;16.60;88.29
75629;BME280;64213;46.452;16.994;2023-05-24T02:25:47;99687.19;;;16.61;88.32
75629;BME280;64213;46.452;16.994;2023-05-24T02:28:49;99683.84;;;16.59;87.94
75629;BME280;64213;46.452;16.994;2023-05-24T02:31:51;99675.97;;;16.58;88.32
75629;BME280;64213;46.452;16.994;2023-05-24T02:34:57;99673.75;;;16.53;89.33
75629;BME280;64213;46.452;16.994;2023-05-24T02:38:02;99671.22;;;16.51;88.71
75629;BME280;64213;46.452;16.994;2023-05-24T02:41:07;99670.22;;;16.52;89.25
75629;BME280;64213;46.452;16.994;2023-05-24T02:44:09;99668.25;;;16.55;89.55
75629;BME280;64213;46.452;16.994;2023-05-24T02:47:12;99670.06;;;16.54;89.44
75629;BME280;64213;46.452;16.994;2023-05-24T02:50:15;99672.75;;;16.54;89.02
75629;BME280;64213;46.452;16.994;2023-05-24T02:53:17;99673.59;;;16.55;89.18
75629;BME280;64213;46.452;16.994;2023-05-24T02:56:19;99670.63;;;16.58;89.02
75629;BME280;64213;46.452;16.994;2023-05-24T02:59:23;99672.59;;;16.56;88.63
75629;BME280;64213;46.452;16.994;2023-05-24T03:02:25;99684.97;;;16.57;88.72
75629;BME280;64213;46.452;16.994;2023-05-24T03:05:30;99690.59;;;16.54;88.75
75629;BME280;64213;46.452;16.994;2023-05-24T03:08:33;99693.12;;;16.55;88.68
75629;BME280;64213;46.452;16.994;2023-05-24T03:11:35;99696.19;;;16.60;88.54
75629;BME280;64213;46.452;16.994;2023-05-24T03:14:37;99695.38;;;16.60;88.34
75629;BME280;64213;46.452;16.994;2023-05-24T03:17:39;99695.50;;;16.58;88.12
75629;BME280;64213;46.452;16.994;2023-05-24T03:20:41;99704.34;;;16.59;88.55
75629;BME280;64213;46.452;16.994;2023-05-24T03:23:44;99701.97;;;16.56;88.61
75629;BME280;64213;46.452;16.994;2023-05-24T03:26:46;99702.41;;;16.51;88.56
75629;BME280;64213;46.452;16.994;2023-05-24T03:29:48;99708.19;;;16.46;88.65
75629;BME280;64213;46.452;16.994;2023-05-24T03:32:50;99716.63;;;16.42;88.89
75629;BME280;64213;46.452;16.994;2023-05-24T03:35:52;99720.16;;;16.33;89.28
75629;BME280;64213;46.452;16.994;2023-05-24T03:38:54;99730.53;;;16.36;88.95
75629;BME280;64213;46.452;16.994;2023-05-24T03:41:59;99723.38;;;16.36;89.01
75629;BME280;64213;46.452;16.994;2023-05-24T03:45:01;99731.66;;;16.33;88.79
75629;BME280;64213;46.452;16.994;2023-05-24T03:48:03;99729.00;;;16.33;88.84
75629;BME280;64213;46.452;16.994;2023-05-24T03:51:05;99731.66;;;16.33;88.61
75629;BME280;64213;46.452;16.994;2023-05-24T03:54:07;99740.09;;;16.28;88.79
75629;BME280;64213;46.452;16.994;2023-05-24T03:57:09;99738.72;;;16.34;88.64
75629;BME280;64213;46.452;16.994;2023-05-24T04:00:11;99739.53;;;16.35;88.40
75629;BME280;64213;46.452;16.994;2023-05-24T04:03:13;99747.09;;;16.39;88.32
75629;BME280;64213;46.452;16.994;2023-05-24T04:06:16;99746.97;;;16.41;88.29
75629;BME280;64213;46.452;16.994;2023-05-24T04:09:18;99751.47;;;16.40;87.95
75629;BME280;64213;46.452;16.994;2023-05-24T04:12:20;99747.09;;;16.39;87.72
75629;BME280;64213;46.452;16.994;2023-05-24T04:15:22;99749.78;;;16.39;87.73
75629;BME280;64213;46.452;16.994;2023-05-24T04:18:24;99757.50;;;16.42;88.00
75629;BME280;64213;46.452;16.994;2023-05-24T04:21:26;99754.84;;;16.42;88.03
75629;BME280;64213;46.452;16.994;2023-05-24T04:24:28;99761.59;;;16.46;87.68
75629;BME280;64213;46.452;16.994;2023-05-24T04:27:31;99756.81;;;16.40;87.89
75629;BME280;64213;46.452;16.994;2023-05-24T04:30:33;99755.69;;;16.33;87.91
75629;BME280;64213;46.452;16.994;2023-05-24T04:33:36;99757.22;;;16.45;87.52
75629;BME280;64213;46.452;16.994;2023-05-24T04:36:40;99757.37;;;16.34;87.64
75629;BME280;64213;46.452;16.994;2023-05-24T04:39:43;99763.41;;;16.17;88.37
75629;BME280;64213;46.452;16.994;2023-05-24T04:42:45;99754.59;;;16.16;88.26
75629;BME280;64213;46.452;16.994;2023-05-24T04:45:47;99757.81;;;16.10;88.43
75629;BME280;64213;46.452;16.994;2023-05-24T04:48:49;99757.53;;;16.23;87.81
75629;BME280;64213;46.452;16.994;2023-05-24T04:51:51;99767.81;;;16.18;87.69
75629;BME280;64213;46.452;16.994;2023-05-24T04:54:55;99755.00;;;16.21;87.36
75629;BME280;64213;46.452;16.994;2023-05-24T04:57:58;99759.91;;;16.26;86.89
75629;BME280;64213;46.452;16.994;2023-05-24T05:01:00;99754.28;;;16.29;86.53
75629;BME280;64213;46.452;16.994;2023-05-24T05:04:03;99762.00;;;16.32;86.25
75629;BME280;64213;46.452;16.994;2023-05-24T05:07:05;99753.00;;;16.33;85.68
75629;BME280;64213;46.452;16.994;2023-05-24T05:10:08;99761.28;;;16.49;84.87
75629;BME280;64213;46.452;16.994;2023-05-24T05:13:10;99765.19;;;16.65;83.92
75629;BME280;64213;46.452;16.994;2023-05-24T05:16:12;99774.03;;;16.75;83.35
75629;BME280;64213;46.452;16.994;2023-05-24T05:19:14;99773.63;;;16.80;82.63
75629;BME280;64213;46.452;16.994;2023-05-24T05:22:16;99778.81;;;16.81;82.29
75629;BME280;64213;46.452;16.994;2023-05-24T05:25:18;99774.59;;;16.88;80.93
75629;BME280;64213;46.452;16.994;2023-05-24T05:28:21;99771.47;;;16.93;81.16
75629;BME280;64213;46.452;16.994;2023-05-24T05:31:23;99773.72;;;16.88;80.89
75629;BME280;64213;46.452;16.994;2023-05-24T05:34:25;99776.12;;;16.91;80.64
75629;BME280;64213;46.452;16.994;2023-05-24T05:37:27;99780.03;;;16.96;80.21
75629;BME280;64213;46.452;16.994;2023-05-24T05:40:30;99778.06;;;16.99;79.24
75629;BME280;64213;46.452;16.994;2023-05-24T05:43:32;99779.72;;;17.09;79.19
75629;BME280;64213;46.452;16.994;2023-05-24T05:46:34;99784.62;;;17.14;78.65
75629;BME280;64213;46.452;16.994;2023-05-24T05:49:36;99785.75;;;17.11;78.68
75629;BME280;64213;46.452;16.994;2023-05-24T05:52:38;99785.81;;;17.02;78.64
75629;BME280;64213;46.452;16.994;2023-05-24T05:55:40;99794.19;;;17.07;78.19
75629;BME280;64213;46.452;16.994;2023-05-24T05:58:42;99793.28;;;16.98;78.27
75629;BME280;64213;46.452;16.994;2023-05-24T06:01:44;99792.16;;;17.01;78.22
75629;BME280;64213;46.452;16.994;2023-05-24T06:04:48;99789.44;;;17.10;77.99
75629;BME280;64213;46.452;16.994;2023-05-24T06:07:51;99789.16;;;17.04;78.18
75629;BME280;64213;46.452;16.994;2023-05-24T06:10:53;99805.59;;;17.09;77.95
75629;BME280;64213;46.452;16.994;2023-05-24T06:13:55;99808.31;;;16.99;78.15
75629;BME280;64213;46.452;16.994;2023-05-24T06:16:57;99816.63;;;16.96;78.25
75629;BME280;64213;46.452;16.994;2023-05-24T06:20:01;99813.22;;;16.94;78.39
75629;BME280;64213;46.452;16.994;2023-05-24T06:23:12;99819.72;;;16.91;78.85
75629;BME280;64213;46.452;16.994;2023-05-24T06:26:15;99816.94;;;16.83;78.82
75629;BME280;64213;46.452;16.994;2023-05-24T06:29:18;99817.91;;;16.82;78.69
75629;BME280;64213;46.452;16.994;2023-05-24T06:32:23;99817.63;;;16.85;78.59
75629;BME280;64213;46.452;16.994;2023-05-24T06:35:25;99822.56;;;16.80;78.81
75629;BME280;64213;46.452;16.994;2023-05-24T06:38:27;99829.19;;;16.76;79.28
75629;BME280;64213;46.452;16.994;2023-05-24T06:41:29;99830.00;;;16.86;79.25
75629;BME280;64213;46.452;16.994;2023-05-24T06:44:31;99839.41;;;16.90;80.18
75629;BME280;64213;46.452;16.994;2023-05-24T06:47:35;99846.47;;;16.82;80.98
75629;BME280;64213;46.452;16.994;2023-05-24T06:50:37;99844.09;;;16.79;82.01
75629;BME280;64213;46.452;16.994;2023-05-24T06:53:43;99846.03;;;16.77;82.31
75629;BME280;64213;46.452;16.994;2023-05-24T06:56:45;99850.56;;;16.76;82.12
75629;BME280;64213;46.452;16.994;2023-05-24T06:59:47;99847.13;;;16.74;81.66
75629;BME280;64213;46.452;16.994;2023-05-24T07:02:49;99846.56;;;16.70;81.48
75629;BME280;64213;46.452;16.994;2023-05-24T07:05:51;99850.56;;;16.76;81.38
75629;BME280;64213;46.452;16.994;2023-05-24T07:08:53;99845.00;;;16.97;80.77
75629;BME280;64213;46.452;16.994;2023-05-24T07:11:55;99847.94;;;17.13;80.50
75629;BME280;64213;46.452;16.994;2023-05-24T07:14:57;99842.81;;;17.30;79.65
75629;BME280;64213;46.452;16.994;2023-05-24T07:17:59;99844.75;;;17.37;78.51
75629;BME280;64213;46.452;16.994;2023-05-24T07:21:01;99839.81;;;17.42;78.77
75629;BME280;64213;46.452;16.994;2023-05-24T07:24:03;99846.63;;;17.55;77.83
75629;BME280;64213;46.452;16.994;2023-05-24T07:27:06;99846.97;;;17.79;76.72
75629;BME280;64213;46.452;16.994;2023-05-24T07:30:08;99848.03;;;18.14;75.53
75629;BME280;64213;46.452;16.994;2023-05-24T07:33:24;99848.87;;;18.32;74.43
75629;BME280;64213;46.452;16.994;2023-05-24T07:36:26;99854.09;;;18.52;72.20
75629;BME280;64213;46.452;16.994;2023-05-24T07:39:35;99853.22;;;18.69;71.37
75629;BME280;64213;46.452;16.994;2023-05-24T07:42:38;99858.00;;;19.01;69.44
75629;BME280;64213;46.452;16.994;2023-05-24T07:45:40;99855.38;;;19.36;68.03
75629;BME280;64213;46.452;16.994;2023-05-24T07:48:43;99862.53;;;19.95;66.83
75629;BME280;64213;46.452;16.994;2023-05-24T07:51:45;99863.47;;;20.45;63.88
75629;BME280;64213;46.452;16.994;2023-05-24T07:54:47;99863.87;;;20.58;61.48
75629;BME280;64213;46.452;16.994;2023-05-24T07:57:49;99858.47;;;20.83;62.35
75629;BME280;64213;46.452;16.994;2023-05-24T08:00:52;99854.28;;;20.97;60.09
75629;BME280;64213;46.452;16.994;2023-05-24T08:03:55;99854.63;;;20.69;60.01
75629;BME280;64213;46.452;16.994;2023-05-24T08:06:57;99863.37;;;20.87;60.10
75629;BME280;64213;46.452;16.994;2023-05-24T08:10:00;99859.81;;;20.95;59.90
75629;BME280;64213;46.452;16.994;2023-05-24T08:13:02;99861.34;;;21.06;60.76
75629;BME280;64213;46.452;16.994;2023-05-24T08:16:05;99864.16;;;21.21;60.05
75629;BME280;64213;46.452;16.994;2023-05-24T08:19:07;99862.44;;;21.28;58.61
75629;BME280;64213;46.452;16.994;2023-05-24T08:22:09;99864.78;;;21.47;59.04
75629;BME280;64213;46.452;16.994;2023-05-24T08:25:11;99869.66;;;21.44;58.30
75629;BME280;64213;46.452;16.994;2023-05-24T08:28:13;99866.81;;;21.45;58.21
75629;BME280;64213;46.452;16.994;2023-05-24T08:31:17;99865.78;;;21.54;57.29
75629;BME280;64213;46.452;16.994;2023-05-24T08:34:20;99869.16;;;22.96;53.63
75629;BME280;64213;46.452;16.994;2023-05-24T08:37:22;99876.84;;;23.96;51.82
75629;BME280;64213;46.452;16.994;2023-05-24T08:40:24;99867.72;;;23.82;51.01
75629;BME280;64213;46.452;16.994;2023-05-24T08:43:28;99878.00;;;23.87;51.97
75629;BME280;64213;46.452;16.994;2023-05-24T08:46:34;99879.00;;;23.27;52.99
75629;BME280;64213;46.452;16.994;2023-05-24T08:49:37;99872.53;;;23.13;53.75
75629;BME280;64213;46.452;16.994;2023-05-24T08:52:39;99875.69;;;22.56;52.83
75629;BME280;64213;46.452;16.994;2023-05-24T08:55:43;99877.16;;;22.43;53.50
75629;BME280;64213;46.452;16.994;2023-05-24T08:58:46;99884.13;;;22.29;54.76
75629;BME280;64213;46.452;16.994;2023-05-24T09:01:52;99885.25;;;22.43;54.42
75629;BME280;64213;46.452;16.994;2023-05-24T09:04:54;99895.44;;;22.25;54.44
75629;BME280;64213;46.452;16.994;2023-05-24T09:07:59;99891.03;;;22.32;54.74
75629;BME280;64213;46.452;16.994;2023-05-24T09:11:02;99887.97;;;22.58;54.42
75629;BME280;64213;46.452;16.994;2023-05-24T09:14:05;99888.56;;;22.22;54.16
75629;BME280;64213;46.452;16.994;2023-05-24T09:17:07;99893.56;;;22.34;54.39
75629;BME280;64213;46.452;16.994;2023-05-24T09:20:09;99897.44;;;22.54;53.93
75629;BME280;64213;46.452;16.994;2023-05-24T09:23:12;99899.66;;;22.96;52.96
75629;BME280;64213;46.452;16.994;2023-05-24T09:26:16;99895.75;;;23.37;51.97
75629;BME280;64213;46.452;16.994;2023-05-24T09:29:21;99894.00;;;23.88;50.91
75629;BME280;64213;46.452;16.994;2023-05-24T09:32:23;99893.69;;;24.92;47.85
75629;BME280;64213;46.452;16.994;2023-05-24T09:35:26;99886.69;;;25.61;46.52
75629;BME280;64213;46.452;16.994;2023-05-24T09:38:29;99887.75;;;26.76;43.69
75629;BME280;64213;46.452;16.994;2023-05-24T09:41:31;99877.78;;;27.16;43.04
75629;BME280;64213;46.452;16.994;2023-05-24T09:44:33;99896.47;;;27.84;41.21
75629;BME280;64213;46.452;16.994;2023-05-24T09:47:37;99890.78;;;28.44;39.85
75629;BME280;64213;46.452;16.994;2023-05-24T09:50:40;99903.84;;;28.92;39.01
75629;BME280;64213;46.452;16.994;2023-05-24T09:53:43;99907.22;;;28.87;38.33
75629;BME280;64213;46.452;16.994;2023-05-24T09:56:45;99899.22;;;28.92;38.25
75629;BME280;64213;46.452;16.994;2023-05-24T09:59:50;99901.87;;;28.74;36.85
75629;BME280;64213;46.452;16.994;2023-05-24T10:03:03;99899.38;;;29.29;36.55
75629;BME280;64213;46.452;16.994;2023-05-24T10:06:09;99904.47;;;28.62;37.61
75629;BME280;64213;46.452;16.994;2023-05-24T10:09:13;99893.94;;;27.76;38.77
75629;BME280;64213;46.452;16.994;2023-05-24T10:12:15;99900.53;;;28.83;37.34
75629;BME280;64213;46.452;16.994;2023-05-24T10:15:17;99884.59;;;29.37;36.15
75629;BME280;64213;46.452;16.994;2023-05-24T10:18:19;99885.16;;;29.64;36.43
75629;BME280;64213;46.452;16.994;2023-05-24T10:21:23;99889.06;;;29.50;36.28
75629;BME280;64213;46.452;16.994;2023-05-24T10:24:30;99899.38;;;29.29;34.74
75629;BME280;64213;46.452;16.994;2023-05-24T10:27:33;99897.97;;;28.25;37.24
75629;BME280;64213;46.452;16.994;2023-05-24T10:30:51;99892.72;;;29.43;35.44
75629;BME280;64213;46.452;16.994;2023-05-24T10:33:57;99897.41;;;29.11;35.95
75629;BME280;64213;46.452;16.994;2023-05-24T10:37:08;99890.22;;;29.42;35.74
75629;BME280;64213;46.452;16.994;2023-05-24T10:40:21;99900.31;;;29.16;36.25
75629;BME280;64213;46.452;16.994;2023-05-24T10:43:27;99892.88;;;29.49;36.10
75629;BME280;64213;46.452;16.994;2023-05-24T10:46:31;99880.91;;;29.86;35.23
75629;BME280;64213;46.452;16.994;2023-05-24T10:49:33;99883.59;;;30.53;34.54
75629;BME280;64213;46.452;16.994;2023-05-24T10:52:36;99872.66;;;28.63;35.70
75629;BME280;64213;46.452;16.994;2023-05-24T10:55:58;99880.28;;;28.02;36.36
75629;BME280;64213;46.452;16.994;2023-05-24T10:59:01;99884.47;;;28.50;35.57
75629;BME280;64213;46.452;16.994;2023-05-24T11:02:08;99871.37;;;29.59;34.11
75629;BME280;64213;46.452;16.994;2023-05-24T11:05:14;99868.53;;;29.29;34.67
75629;BME280;64213;46.452;16.994;2023-05-24T11:08:33;99873.19;;;29.83;33.94
75629;BME280;64213;46.452;16.994;2023-05-24T11:11:38;99869.63;;;27.94;37.12
75629;BME280;64213;46.452;16.994;2023-05-24T11:14:46;99867.84;;;28.58;35.93
75629;BME280;64213;46.452;16.994;2023-05-24T11:21:10;99861.25;;;27.18;38.48
75629;BME280;64213;46.452;16.994;2023-05-24T11:24:12;99860.12;;;27.58;37.76
75629;BME280;64213;46.452;16.994;2023-05-24T11:27:14;99859.91;;;28.57;35.54
75629;BME280;64213;46.452;16.994;2023-05-24T11:30:17;99854.09;;;28.78;34.75
75629;BME280;64213;46.452;16.994;2023-05-24T11:33:21;99850.25;;;28.22;34.53
75629;BME280;64213;46.452;16.994;2023-05-24T11:36:26;99855.91;;;27.63;36.75
75629;BME280;64213;46.452;16.994;2023-05-24T11:39:30;99850.19;;;26.86;37.91
75629;BME280;64213;46.452;16.994;2023-05-24T11:42:32;99837.59;;;26.45;38.78
75629;BME280;64213;46.452;16.994;2023-05-24T11:45:34;99848.53;;;25.56;38.75
75629;BME280;64213;46.452;16.994;2023-05-24T11:48:37;99852.09;;;25.56;39.18
75629;BME280;64213;46.452;16.994;2023-05-24T11:51:42;99842.13;;;26.18;36.76
75629;BME280;64213;46.452;16.994;2023-05-24T11:54:44;99841.81;;;27.21;34.10
75629;BME280;64213;46.452;16.994;2023-05-24T11:57:51;99845.34;;;27.41;32.85
75629;BME280;64213;46.452;16.994;2023-05-24T12:00:55;99831.59;;;28.26;33.14
75629;BME280;64213;46.452;16.994;2023-05-24T12:03:57;99841.37;;;28.72;31.08
75629;BME280;64213;46.452;16.994;2023-05-24T12:06:59;99822.31;;;29.59;29.61
75629;BME280;64213;46.452;16.994;2023-05-24T12:10:03;99825.19;;;29.46;30.04
75629;BME280;64213;46.452;16.994;2023-05-24T12:13:18;99820.00;;;29.19;29.66
75629;BME280;64213;46.452;16.994;2023-05-24T12:16:22;99823.69;;;29.68;29.88
75629;BME280;64213;46.452;16.994;2023-05-24T12:19:30;99827.34;;;29.18;30.75
75629;BME280;64213;46.452;16.994;2023-05-24T12:22:36;99817.06;;;28.95;31.41
75629;BME280;64213;46.452;16.994;2023-05-24T12:25:38;99811.78;;;29.44;31.51
75629;BME280;64213;46.452;16.994;2023-05-24T12:28:40;99819.59;;;30.38;30.35
75629;BME280;64213;46.452;16.994;2023-05-24T12:31:46;99817.94;;;30.37;30.66
75629;BME280;64213;46.452;16.994;2023-05-24T12:34:48;99808.19;;;30.29;30.85
75629;BME280;64213;46.452;16.994;2023-05-24T12:37:57;99799.50;;;30.20;28.60
75629;BME280;64213;46.452;16.994;2023-05-24T12:41:00;99806.50;;;30.70;28.62
75629;BME280;64213;46.452;16.994;2023-05-24T12:44:05;99795.66;;;30.63;28.39
75629;BME280;64213;46.452;16.994;2023-05-24T12:47:08;99798.34;;;31.05;28.52
75629;BME280;64213;46.452;16.994;2023-05-24T12:50:11;99804.47;;;30.65;28.82
75629;BME280;64213;46.452;16.994;2023-05-24T12:53:13;99795.19;;;29.64;30.80
75629;BME280;64213;46.452;16.994;2023-05-24T12:56:15;99785.03;;;29.16;30.94
75629;BME280;64213;46.452;16.994;2023-05-24T12:59:17;99783.66;;;30.10;28.81
75629;BME280;64213;46.452;16.994;2023-05-24T13:02:19;99784.50;;;30.11;28.99
75629;BME280;64213;46.452;16.994;2023-05-24T13:05:24;99773.63;;;29.93;30.23
75629;BME280;64213;46.452;16.994;2023-05-24T13:08:27;99775.97;;;29.77;30.19
75629;BME280;64213;46.452;16.994;2023-05-24T13:11:30;99789.28;;;30.16;30.17
75629;BME280;64213;46.452;16.994;2023-05-24T13:14:32;99780.44;;;30.32;30.27
75629;BME280;64213;46.452;16.994;2023-05-24T13:17:35;99773.72;;;30.70;29.34
75629;BME280;64213;46.452;16.994;2023-05-24T13:20:37;99767.91;;;30.54;30.62
75629;BME280;64213;46.452;16.994;2023-05-24T13:23:39;99765.13;;;30.43;30.30
75629;BME280;64213;46.452;16.994;2023-05-24T13:26:44;99762.78;;;30.58;31.13
75629;BME280;64213;46.452;16.994;2023-05-24T13:29:46;99762.50;;;29.09;33.37
75629;BME280;64213;46.452;16.994;2023-05-24T13:33:01;99773.09;;;27.78;36.21
75629;BME280;64213;46.452;16.994;2023-05-24T13:36:03;99766.69;;;26.68;37.69
75629;BME280;64213;46.452;16.994;2023-05-24T13:39:05;99765.00;;;26.74;38.28
75629;BME280;64213;46.452;16.994;2023-05-24T13:42:13;99762.16;;;27.40;36.46
75629;BME280;64213;46.452;16.994;2023-05-24T13:45:15;99763.47;;;27.83;35.65
75629;BME280;64213;46.452;16.994;2023-05-24T13:48:17;99763.59;;;28.26;34.70
75629;BME280;64213;46.452;16.994;2023-05-24T13:51:19;99750.91;;;29.32;33.16
75629;BME280;64213;46.452;16.994;2023-05-24T13:54:21;99746.88;;;29.71;32.20
75629;BME280;64213;46.452;16.994;2023-05-24T13:57:23;99750.41;;;30.02;30.90
75629;BME280;64213;46.452;16.994;2023-05-24T14:00:40;99743.34;;;29.52;30.74
75629;BME280;64213;46.452;16.994;2023-05-24T14:03:43;99744.69;;;29.92;30.84
75629;BME280;64213;46.452;16.994;2023-05-24T14:06:45;99751.59;;;28.40;33.50
75629;BME280;64213;46.452;16.994;2023-05-24T14:09:47;99753.94;;;27.60;35.11
75629;BME280;64213;46.452;16.994;2023-05-24T14:12:49;99746.38;;;27.17;36.25
75629;BME280;64213;46.452;16.994;2023-05-24T14:16:04;99737.66;;;26.82;36.80
75629;BME280;64213;46.452;16.994;2023-05-24T14:19:07;99743.53;;;26.59;37.06
75629;BME280;64213;46.452;16.994;2023-05-24T14:22:09;99753.72;;;26.37;37.71
75629;BME280;64213;46.452;16.994;2023-05-24T14:25:12;99744.13;;;26.87;36.67
75629;BME280;64213;46.452;16.994;2023-05-24T14:28:14;99746.19;;;26.92;36.65
75629;BME280;64213;46.452;16.994;2023-05-24T14:31:16;99756.19;;;26.12;38.02
75629;BME280;64213;46.452;16.994;2023-05-24T14:34:19;99762.47;;;26.32;37.47
75629;BME280;64213;46.452;16.994;2023-05-24T14:37:21;99759.28;;;27.28;36.38
75629;BME280;64213;46.452;16.994;2023-05-24T14:40:23;99765.06;;;27.45;36.61
75629;BME280;64213;46.452;16.994;2023-05-24T14:43:25;99771.72;;;26.64;38.27
75629;BME280;64213;46.452;16.994;2023-05-24T14:46:27;99771.63;;;26.11;39.21
75629;BME280;64213;46.452;16.994;2023-05-24T14:49:29;99770.31;;;25.87;39.48
75629;BME280;64213;46.452;16.994;2023-05-24T14:52:31;99770.00;;;26.37;38.79
75629;BME280;64213;46.452;16.994;2023-05-24T14:55:34;99764.41;;;25.70;40.28
75629;BME280;64213;46.452;16.994;2023-05-24T14:58:37;99767.84;;;25.44;40.37
75629;BME280;64213;46.452;16.994;2023-05-24T15:01:39;99770.78;;;25.08;41.22
75629;BME280;64213;46.452;16.994;2023-05-24T15:04:41;99768.59;;;24.97;41.62
75629;BME280;64213;46.452;16.994;2023-05-24T15:07:43;99773.47;;;25.08;41.56
75629;BME280;64213;46.452;16.994;2023-05-24T15:10:45;99765.91;;;25.32;41.11
75629;BME280;64213;46.452;16.994;2023-05-24T15:13:47;99762.91;;;25.13;41.72
75629;BME280;64213;46.452;16.994;2023-05-24T15:16:49;99777.56;;;25.25;41.34
75629;BME280;64213;46.452;16.994;2023-05-24T15:19:51;99770.56;;;25.10;41.62
75629;BME280;64213;46.452;16.994;2023-05-24T15:22:54;99777.16;;;25.28;41.80
75629;BME280;64213;46.452;16.994;2023-05-24T15:25:56;99777.09;;;25.15;41.57
75629;BME280;64213;46.452;16.994;2023-05-24T15:28:58;99778.13;;;24.86;42.19
75629;BME280;64213;46.452;16.994;2023-05-24T15:32:04;99781.97;;;24.49;42.92
75629;BME280;64213;46.452;16.994;2023-05-24T15:35:07;99787.56;;;24.26;43.50
75629;BME280;64213;46.452;16.994;2023-05-24T15:38:09;99787.66;;;23.96;44.11
75629;BME280;64213;46.452;16.994;2023-05-24T15:41:11;99780.53;;;23.88;44.23
75629;BME280;64213;46.452;16.994;2023-05-24T15:44:13;99786.53;;;23.69;44.92
75629;BME280;64213;46.452;16.994;2023-05-24T15:47:16;99786.72;;;23.67;44.59
75629;BME280;64213;46.452;16.994;2023-05-24T15:50:20;99787.41;;;23.40;45.62
75629;BME280;64213;46.452;16.994;2023-05-24T15:53:43;99780.59;;;23.44;46.20
75629;BME280;64213;46.452;16.994;2023-05-24T15:56:45;99779.75;;;23.43;45.39
75629;BME280;64213;46.452;16.994;2023-05-24T15:59:47;99782.00;;;23.40;45.72
75629;BME280;64213;46.452;16.994;2023-05-24T16:02:50;99779.84;;;23.35;46.26
75629;BME280;64213;46.452;16.994;2023-05-24T16:05:54;99779.28;;;23.25;46.36
75629;BME280;64213;46.452;16.994;2023-05-24T16:08:56;99779.78;;;23.14;47.40
75629;BME280;64213;46.452;16.994;2023-05-24T16:11:58;99781.81;;;23.12;47.46